sensor_id;sensor_type;location;lat;lon;timestamp;P1;durP1;ratioP1;P2;durP2;ratioP2
21991;SDS011;11160;51.576;0.194;2022-08-21T00:00:19;7.05;;;3.10;;
21991;SDS011;11160;51.576;0.194;2022-08-21T00:02:50;5.88;;;3.25;;
21991;SDS011;11160;51.576;0.194;2022-08-21T00:05:21;5.68;;;2.88;;
21991;SDS011;11160;51.576;0.194;2022-08-21T00:07:49;5.00;;;2.85;;
21991;SDS011;11160;51.576;0.194;2022-08-21T00:10:16;3.83;;;2.60;;
21991;SDS011;11160;51.576;0.194;2022-08-21T00:12:44;3.55;;;2.55;;
21991;SDS011;11160;51.576;0.194;2022-08-21T00:15:14;4.38;;;2.75;;
21991;SDS011;11160;51.576;0.194;2022-08-21T00:17:45;4.20;;;2.53;;
21991;SDS011;11160;51.576;0.194;2022-08-21T00:20:13;3.83;;;2.65;;
21991;SDS011;11160;51.576;0.194;2022-08-21T00:22:41;4.10;;;2.50;;
21991;SDS011;11160;51.576;0.194;2022-08-21T00:25:08;3.42;;;2.58;;
21991;SDS011;11160;51.576;0.194;2022-08-21T00:27:38;4.82;;;2.88;;
21991;SDS011;11160;51.576;0.194;2022-08-21T00:30:05;3.75;;;2.55;;
21991;SDS011;11160;51.576;0.194;2022-08-21T00:32:34;4.43;;;2.90;;
21991;SDS011;11160;51.576;0.194;2022-08-21T00:35:09;5.32;;;3.15;;
21991;SDS011;11160;51.576;0.194;2022-08-21T00:37:40;4.75;;;2.65;;
21991;SDS011;11160;51.576;0.194;2022-08-21T00:40:08;5.60;;;2.70;;
21991;SDS011;11160;51.576;0.194;2022-08-21T00:42:38;4.50;;;2.85;;
21991;SDS011;11160;51.576;0.194;2022-08-21T00:45:06;4.43;;;2.67;;
21991;SDS011;11160;51.576;0.194;2022-08-21T00:47:34;3.88;;;2.45;;
21991;SDS011;11160;51.576;0.194;2022-08-21T00:50:02;5.22;;;2.40;;
21991;SDS011;11160;51.576;0.194;2022-08-21T00:52:31;3.20;;;2.37;;
21991;SDS011;11160;51.576;0.194;2022-08-21T00:55:00;4.30;;;2.70;;
21991;SDS011;11160;51.576;0.194;2022-08-21T00:57:29;4.18;;;2.60;;
21991;SDS011;11160;51.576;0.194;2022-08-21T01:00:00;4.88;;;2.75;;
21991;SDS011;11160;51.576;0.194;2022-08-21T01:02:30;4.13;;;2.72;;
21991;SDS011;11160;51.576;0.194;2022-08-21T01:04:57;3.63;;;2.42;;
21991;SDS011;11160;51.576;0.194;2022-08-21T01:07:25;3.80;;;2.85;;
21991;SDS011;11160;51.576;0.194;2022-08-21T01:09:53;4.38;;;2.85;;
21991;SDS011;11160;51.576;0.194;2022-08-21T01:12:20;4.00;;;2.55;;
21991;SDS011;11160;51.576;0.194;2022-08-21T01:14:47;3.70;;;2.80;;
21991;SDS011;11160;51.576;0.194;2022-08-21T01:17:14;5.38;;;2.72;;
21991;SDS011;11160;51.576;0.194;2022-08-21T01:19:43;4.75;;;2.75;;
21991;SDS011;11160;51.576;0.194;2022-08-21T01:22:10;3.58;;;3.03;;
21991;SDS011;11160;51.576;0.194;2022-08-21T01:24:37;3.90;;;2.75;;
21991;SDS011;11160;51.576;0.194;2022-08-21T01:27:04;3.97;;;2.90;;
21991;SDS011;11160;51.576;0.194;2022-08-21T01:29:39;3.90;;;2.67;;
21991;SDS011;11160;51.576;0.194;2022-08-21T01:32:36;4.63;;;2.60;;
21991;SDS011;11160;51.576;0.194;2022-08-21T01:35:03;4.13;;;2.58;;
21991;SDS011;11160;51.576;0.194;2022-08-21T01:37:31;4.40;;;2.88;;
21991;SDS011;11160;51.576;0.194;2022-08-21T01:39:59;4.07;;;2.97;;
21991;SDS011;11160;51.576;0.194;2022-08-21T01:42:26;4.35;;;2.97;;
21991;SDS011;11160;51.576;0.194;2022-08-21T01:44:53;3.58;;;2.97;;
21991;SDS011;11160;51.576;0.194;2022-08-21T01:47:23;5.22;;;3.28;;
21991;SDS011;11160;51.576;0.194;2022-08-21T01:49:50;3.20;;;2.95;;
21991;SDS011;11160;51.576;0.194;2022-08-21T01:52:18;3.90;;;3.03;;
21991;SDS011;11160;51.576;0.194;2022-08-21T01:54:45;3.05;;;2.75;;
21991;SDS011;11160;51.576;0.194;2022-08-21T01:57:20;3.90;;;3.08;;
21991;SDS011;11160;51.576;0.194;2022-08-21T01:59:52;3.47;;;3.05;;
21991;SDS011;11160;51.576;0.194;2022-08-21T02:02:19;3.60;;;3.30;;
21991;SDS011;11160;51.576;0.194;2022-08-21T02:04:46;3.75;;;3.33;;
21991;SDS011;11160;51.576;0.194;2022-08-21T02:07:13;4.38;;;3.45;;
21991;SDS011;11160;51.576;0.194;2022-08-21T02:12:27;3.90;;;3.53;;
21991;SDS011;11160;51.576;0.194;2022-08-21T02:14:54;3.70;;;3.38;;
21991;SDS011;11160;51.576;0.194;2022-08-21T02:17:21;4.25;;;3.83;;
21991;SDS011;11160;51.576;0.194;2022-08-21T02:19:48;4.68;;;3.85;;
21991;SDS011;11160;51.576;0.194;2022-08-21T02:22:16;5.70;;;3.90;;
21991;SDS011;11160;51.576;0.194;2022-08-21T02:24:43;4.35;;;3.65;;
21991;SDS011;11160;51.576;0.194;2022-08-21T02:27:22;4.18;;;3.70;;
21991;SDS011;11160;51.576;0.194;2022-08-21T02:29:52;3.80;;;3.50;;
21991;SDS011;11160;51.576;0.194;2022-08-21T02:32:23;4.45;;;4.05;;
21991;SDS011;11160;51.576;0.194;2022-08-21T02:34:52;4.57;;;3.85;;
21991;SDS011;11160;51.576;0.194;2022-08-21T02:37:19;4.53;;;4.13;;
21991;SDS011;11160;51.576;0.194;2022-08-21T02:39:47;5.13;;;4.63;;
21991;SDS011;11160;51.576;0.194;2022-08-21T02:42:14;5.07;;;3.80;;
21991;SDS011;11160;51.576;0.194;2022-08-21T02:44:41;4.70;;;4.32;;
21991;SDS011;11160;51.576;0.194;2022-08-21T02:47:08;4.43;;;4.03;;
21991;SDS011;11160;51.576;0.194;2022-08-21T02:52:05;4.13;;;3.72;;
21991;SDS011;11160;51.576;0.194;2022-08-21T02:54:32;4.57;;;4.18;;
21991;SDS011;11160;51.576;0.194;2022-08-21T02:56:59;4.43;;;4.13;;
21991;SDS011;11160;51.576;0.194;2022-08-21T02:59:26;5.13;;;4.50;;
21991;SDS011;11160;51.576;0.194;2022-08-21T03:01:53;5.07;;;4.57;;
21991;SDS011;11160;51.576;0.194;2022-08-21T03:04:22;4.78;;;4.10;;
21991;SDS011;11160;51.576;0.194;2022-08-21T03:06:49;4.80;;;4.28;;
21991;SDS011;11160;51.576;0.194;2022-08-21T03:09:16;4.70;;;4.25;;
21991;SDS011;11160;51.576;0.194;2022-08-21T03:11:43;4.57;;;4.18;;
21991;SDS011;11160;51.576;0.194;2022-08-21T03:14:10;4.78;;;4.38;;
21991;SDS011;11160;51.576;0.194;2022-08-21T03:16:37;4.65;;;4.22;;
21991;SDS011;11160;51.576;0.194;2022-08-21T03:19:05;4.43;;;4.03;;
21991;SDS011;11160;51.576;0.194;2022-08-21T03:21:32;4.78;;;4.28;;
21991;SDS011;11160;51.576;0.194;2022-08-21T03:23:59;4.45;;;4.15;;
21991;SDS011;11160;51.576;0.194;2022-08-21T03:26:29;4.60;;;4.20;;
21991;SDS011;11160;51.576;0.194;2022-08-21T03:28:57;5.10;;;4.13;;
21991;SDS011;11160;51.576;0.194;2022-08-21T03:31:24;4.65;;;4.25;;
21991;SDS011;11160;51.576;0.194;2022-08-21T03:33:57;5.28;;;4.78;;
21991;SDS011;11160;51.576;0.194;2022-08-21T03:36:24;4.97;;;4.57;;
21991;SDS011;11160;51.576;0.194;2022-08-21T03:38:52;5.32;;;4.82;;
21991;SDS011;11160;51.576;0.194;2022-08-21T03:41:19;5.13;;;4.63;;
21991;SDS011;11160;51.576;0.194;2022-08-21T03:43:47;5.07;;;4.57;;
21991;SDS011;11160;51.576;0.194;2022-08-21T03:46:14;6.57;;;6.00;;
21991;SDS011;11160;51.576;0.194;2022-08-21T03:48:41;5.38;;;4.88;;
21991;SDS011;11160;51.576;0.194;2022-08-21T03:51:08;5.30;;;4.90;;
21991;SDS011;11160;51.576;0.194;2022-08-21T03:53:35;5.68;;;5.07;;
21991;SDS011;11160;51.576;0.194;2022-08-21T03:56:03;6.40;;;5.70;;
21991;SDS011;11160;51.576;0.194;2022-08-21T03:58:34;5.78;;;5.25;;
21991;SDS011;11160;51.576;0.194;2022-08-21T04:01:02;6.38;;;5.88;;
21991;SDS011;11160;51.576;0.194;2022-08-21T04:03:30;7.28;;;6.57;;
21991;SDS011;11160;51.576;0.194;2022-08-21T04:05:57;6.43;;;5.93;;
21991;SDS011;11160;51.576;0.194;2022-08-21T04:08:26;6.30;;;5.88;;
21991;SDS011;11160;51.576;0.194;2022-08-21T04:10:54;7.22;;;6.72;;
21991;SDS011;11160;51.576;0.194;2022-08-21T04:13:22;6.88;;;6.38;;
21991;SDS011;11160;51.576;0.194;2022-08-21T04:15:50;6.65;;;6.15;;
21991;SDS011;11160;51.576;0.194;2022-08-21T04:18:18;6.88;;;6.38;;
21991;SDS011;11160;51.576;0.194;2022-08-21T04:20:46;6.93;;;6.43;;
21991;SDS011;11160;51.576;0.194;2022-08-21T04:25:50;6.72;;;6.22;;
21991;SDS011;11160;51.576;0.194;2022-08-21T04:28:18;6.50;;;6.00;;
21991;SDS011;11160;51.576;0.194;2022-08-21T04:30:45;7.25;;;6.75;;
21991;SDS011;11160;51.576;0.194;2022-08-21T04:33:13;7.28;;;6.65;;
21991;SDS011;11160;51.576;0.194;2022-08-21T04:35:40;7.03;;;6.43;;
21991;SDS011;11160;51.576;0.194;2022-08-21T04:38:09;7.05;;;6.47;;
21991;SDS011;11160;51.576;0.194;2022-08-21T04:40:36;7.03;;;6.53;;
21991;SDS011;11160;51.576;0.194;2022-08-21T04:43:05;7.10;;;6.50;;
21991;SDS011;11160;51.576;0.194;2022-08-21T04:45:35;6.63;;;6.23;;
21991;SDS011;11160;51.576;0.194;2022-08-21T04:48:07;7.10;;;6.60;;
21991;SDS011;11160;51.576;0.194;2022-08-21T04:50:49;6.88;;;6.28;;
21991;SDS011;11160;51.576;0.194;2022-08-21T04:55:57;7.05;;;6.45;;
21991;SDS011;11160;51.576;0.194;2022-08-21T04:58:28;6.88;;;6.28;;
21991;SDS011;11160;51.576;0.194;2022-08-21T05:00:57;6.25;;;5.75;;
21991;SDS011;11160;51.576;0.194;2022-08-21T05:03:25;6.97;;;6.38;;
21991;SDS011;11160;51.576;0.194;2022-08-21T05:05:52;7.43;;;6.80;;
21991;SDS011;11160;51.576;0.194;2022-08-21T05:08:20;6.72;;;6.20;;
21991;SDS011;11160;51.576;0.194;2022-08-21T05:10:49;6.77;;;6.10;;
21991;SDS011;11160;51.576;0.194;2022-08-21T05:13:16;6.38;;;5.85;;
21991;SDS011;11160;51.576;0.194;2022-08-21T05:15:44;6.25;;;5.75;;
21991;SDS011;11160;51.576;0.194;2022-08-21T05:18:11;6.20;;;5.75;;
21991;SDS011;11160;51.576;0.194;2022-08-21T05:20:38;6.50;;;6.00;;
21991;SDS011;11160;51.576;0.194;2022-08-21T05:23:06;6.07;;;5.68;;
21991;SDS011;11160;51.576;0.194;2022-08-21T05:25:37;6.65;;;6.15;;
21991;SDS011;11160;51.576;0.194;2022-08-21T05:28:05;6.57;;;6.10;;
21991;SDS011;11160;51.576;0.194;2022-08-21T05:30:33;6.93;;;6.22;;
21991;SDS011;11160;51.576;0.194;2022-08-21T05:33:01;7.22;;;6.20;;
21991;SDS011;11160;51.576;0.194;2022-08-21T05:35:30;6.72;;;6.22;;
21991;SDS011;11160;51.576;0.194;2022-08-21T05:38:02;6.82;;;6.28;;
21991;SDS011;11160;51.576;0.194;2022-08-21T05:40:30;6.43;;;5.80;;
21991;SDS011;11160;51.576;0.194;2022-08-21T05:42:57;6.63;;;6.13;;
21991;SDS011;11160;51.576;0.194;2022-08-21T05:45:29;6.75;;;6.25;;
21991;SDS011;11160;51.576;0.194;2022-08-21T05:48:16;6.28;;;5.88;;
21991;SDS011;11160;51.576;0.194;2022-08-21T05:50:48;7.07;;;6.43;;
21991;SDS011;11160;51.576;0.194;2022-08-21T05:53:16;6.38;;;5.88;;
21991;SDS011;11160;51.576;0.194;2022-08-21T05:55:45;6.15;;;5.60;;
21991;SDS011;11160;51.576;0.194;2022-08-21T05:58:14;6.18;;;5.53;;
21991;SDS011;11160;51.576;0.194;2022-08-21T06:00:42;6.20;;;5.60;;
21991;SDS011;11160;51.576;0.194;2022-08-21T06:03:14;6.07;;;5.57;;
21991;SDS011;11160;51.576;0.194;2022-08-21T06:05:44;6.05;;;5.55;;
21991;SDS011;11160;51.576;0.194;2022-08-21T06:08:12;5.93;;;5.47;;
21991;SDS011;11160;51.576;0.194;2022-08-21T06:10:40;6.45;;;5.85;;
21991;SDS011;11160;51.576;0.194;2022-08-21T06:13:07;6.22;;;5.70;;
21991;SDS011;11160;51.576;0.194;2022-08-21T06:15:35;5.57;;;5.18;;
21991;SDS011;11160;51.576;0.194;2022-08-21T06:18:02;6.32;;;5.72;;
21991;SDS011;11160;51.576;0.194;2022-08-21T06:20:29;5.32;;;4.93;;
21991;SDS011;11160;51.576;0.194;2022-08-21T06:22:56;6.22;;;5.63;;
21991;SDS011;11160;51.576;0.194;2022-08-21T06:25:24;5.95;;;5.45;;
21991;SDS011;11160;51.576;0.194;2022-08-21T06:27:51;5.65;;;5.13;;
21991;SDS011;11160;51.576;0.194;2022-08-21T06:30:18;6.32;;;5.68;;
21991;SDS011;11160;51.576;0.194;2022-08-21T06:32:45;5.97;;;5.53;;
21991;SDS011;11160;51.576;0.194;2022-08-21T06:35:12;5.93;;;5.43;;
21991;SDS011;11160;51.576;0.194;2022-08-21T06:37:39;6.45;;;5.93;;
21991;SDS011;11160;51.576;0.194;2022-08-21T06:40:06;6.22;;;5.72;;
21991;SDS011;11160;51.576;0.194;2022-08-21T06:42:38;5.63;;;5.20;;
21991;SDS011;11160;51.576;0.194;2022-08-21T06:45:07;6.57;;;5.97;;
21991;SDS011;11160;51.576;0.194;2022-08-21T06:47:34;6.13;;;5.63;;
21991;SDS011;11160;51.576;0.194;2022-08-21T06:50:01;5.97;;;5.57;;
21991;SDS011;11160;51.576;0.194;2022-08-21T06:52:28;6.30;;;5.80;;
21991;SDS011;11160;51.576;0.194;2022-08-21T06:54:55;5.88;;;5.38;;
21991;SDS011;11160;51.576;0.194;2022-08-21T06:57:22;6.22;;;5.82;;
21991;SDS011;11160;51.576;0.194;2022-08-21T06:59:51;6.28;;;5.78;;
21991;SDS011;11160;51.576;0.194;2022-08-21T07:02:18;6.78;;;5.80;;
21991;SDS011;11160;51.576;0.194;2022-08-21T07:04:45;5.90;;;5.45;;
21991;SDS011;11160;51.576;0.194;2022-08-21T07:07:12;5.53;;;5.05;;
21991;SDS011;11160;51.576;0.194;2022-08-21T07:09:39;5.25;;;4.85;;
21991;SDS011;11160;51.576;0.194;2022-08-21T07:12:06;6.10;;;5.53;;
21991;SDS011;11160;51.576;0.194;2022-08-21T07:14:34;5.22;;;4.82;;
21991;SDS011;11160;51.576;0.194;2022-08-21T07:17:01;5.50;;;5.10;;
21991;SDS011;11160;51.576;0.194;2022-08-21T07:19:28;5.18;;;4.82;;
21991;SDS011;11160;51.576;0.194;2022-08-21T07:21:56;5.60;;;5.10;;
21991;SDS011;11160;51.576;0.194;2022-08-21T07:24:26;5.93;;;5.32;;
21991;SDS011;11160;51.576;0.194;2022-08-21T07:26:54;5.65;;;4.93;;
21991;SDS011;11160;51.576;0.194;2022-08-21T07:29:21;6.05;;;5.65;;
21991;SDS011;11160;51.576;0.194;2022-08-21T07:31:48;5.07;;;4.63;;
21991;SDS011;11160;51.576;0.194;2022-08-21T07:34:16;5.18;;;4.78;;
21991;SDS011;11160;51.576;0.194;2022-08-21T07:36:42;6.13;;;5.68;;
21991;SDS011;11160;51.576;0.194;2022-08-21T07:39:10;5.28;;;4.47;;
21991;SDS011;11160;51.576;0.194;2022-08-21T07:41:36;5.85;;;4.78;;
21991;SDS011;11160;51.576;0.194;2022-08-21T07:44:03;5.72;;;5.32;;
21991;SDS011;11160;51.576;0.194;2022-08-21T07:46:31;6.72;;;5.90;;
21991;SDS011;11160;51.576;0.194;2022-08-21T07:49:00;6.72;;;6.28;;
21991;SDS011;11160;51.576;0.194;2022-08-21T07:51:27;7.40;;;6.85;;
21991;SDS011;11160;51.576;0.194;2022-08-21T07:53:56;6.60;;;6.07;;
21991;SDS011;11160;51.576;0.194;2022-08-21T07:56:26;5.85;;;5.35;;
21991;SDS011;11160;51.576;0.194;2022-08-21T07:58:54;6.90;;;6.07;;
21991;SDS011;11160;51.576;0.194;2022-08-21T08:01:22;6.53;;;5.93;;
21991;SDS011;11160;51.576;0.194;2022-08-21T08:03:49;5.78;;;5.38;;
21991;SDS011;11160;51.576;0.194;2022-08-21T08:06:16;6.93;;;6.40;;
21991;SDS011;11160;51.576;0.194;2022-08-21T08:08:45;6.63;;;6.15;;
21991;SDS011;11160;51.576;0.194;2022-08-21T08:11:12;6.35;;;5.90;;
21991;SDS011;11160;51.576;0.194;2022-08-21T08:13:42;7.38;;;6.78;;
21991;SDS011;11160;51.576;0.194;2022-08-21T08:16:14;6.78;;;6.22;;
21991;SDS011;11160;51.576;0.194;2022-08-21T08:18:42;5.38;;;4.88;;
21991;SDS011;11160;51.576;0.194;2022-08-21T08:21:10;6.45;;;6.03;;
21991;SDS011;11160;51.576;0.194;2022-08-21T08:23:38;6.97;;;6.47;;
21991;SDS011;11160;51.576;0.194;2022-08-21T08:26:06;6.40;;;6.00;;
21991;SDS011;11160;51.576;0.194;2022-08-21T08:31:19;7.88;;;7.28;;
21991;SDS011;11160;51.576;0.194;2022-08-21T08:33:46;7.90;;;7.20;;
21991;SDS011;11160;51.576;0.194;2022-08-21T08:36:14;7.05;;;6.53;;
21991;SDS011;11160;51.576;0.194;2022-08-21T08:38:43;7.35;;;6.75;;
21991;SDS011;11160;51.576;0.194;2022-08-21T08:41:12;7.28;;;6.60;;
21991;SDS011;11160;51.576;0.194;2022-08-21T08:43:44;7.43;;;6.93;;
21991;SDS011;11160;51.576;0.194;2022-08-21T08:46:20;7.85;;;7.28;;
21991;SDS011;11160;51.576;0.194;2022-08-21T08:48:57;7.60;;;6.97;;
21991;SDS011;11160;51.576;0.194;2022-08-21T08:51:46;10.10;;;9.35;;
21991;SDS011;11160;51.576;0.194;2022-08-21T08:54:46;9.68;;;8.77;;
21991;SDS011;11160;51.576;0.194;2022-08-21T08:57:24;9.82;;;9.05;;
21991;SDS011;11160;51.576;0.194;2022-08-21T08:59:52;11.10;;;10.38;;
21991;SDS011;11160;51.576;0.194;2022-08-21T09:02:22;11.95;;;11.15;;
21991;SDS011;11160;51.576;0.194;2022-08-21T09:04:52;10.88;;;10.18;;
21991;SDS011;11160;51.576;0.194;2022-08-21T09:22:10;16.20;;;14.82;;
21991;SDS011;11160;51.576;0.194;2022-08-21T09:27:48;16.13;;;14.73;;
21991;SDS011;11160;51.576;0.194;2022-08-21T09:30:17;14.50;;;13.27;;
21991;SDS011;11160;51.576;0.194;2022-08-21T09:32:47;13.93;;;12.50;;
21991;SDS011;11160;51.576;0.194;2022-08-21T09:35:20;13.30;;;12.07;;
21991;SDS011;11160;51.576;0.194;2022-08-21T09:40:33;11.52;;;10.52;;
21991;SDS011;11160;51.576;0.194;2022-08-21T09:48:38;13.65;;;12.48;;
21991;SDS011;11160;51.576;0.194;2022-08-21T09:51:12;12.75;;;11.60;;
21991;SDS011;11160;51.576;0.194;2022-08-21T09:54:29;16.90;;;15.52;;
21991;SDS011;11160;51.576;0.194;2022-08-21T09:59:50;15.43;;;13.82;;
21991;SDS011;11160;51.576;0.194;2022-08-21T10:04:59;12.70;;;11.80;;
21991;SDS011;11160;51.576;0.194;2022-08-21T10:07:27;14.48;;;13.30;;
21991;SDS011;11160;51.576;0.194;2022-08-21T10:26:05;14.30;;;13.10;;
21991;SDS011;11160;51.576;0.194;2022-08-21T10:28:45;16.92;;;15.30;;
21991;SDS011;11160;51.576;0.194;2022-08-21T10:42:21;19.80;;;18.30;;
21991;SDS011;11160;51.576;0.194;2022-08-21T10:48:05;14.88;;;13.70;;
21991;SDS011;11160;51.576;0.194;2022-08-21T10:53:35;17.35;;;16.02;;
21991;SDS011;11160;51.576;0.194;2022-08-21T11:04:20;31.35;;;29.00;;
21991;SDS011;11160;51.576;0.194;2022-08-21T11:10:18;37.22;;;35.10;;
21991;SDS011;11160;51.576;0.194;2022-08-21T11:13:01;37.33;;;35.08;;
21991;SDS011;11160;51.576;0.194;2022-08-21T11:15:38;38.33;;;35.90;;
21991;SDS011;11160;51.576;0.194;2022-08-21T11:26:46;36.92;;;34.65;;
21991;SDS011;11160;51.576;0.194;2022-08-21T11:29:22;42.67;;;40.13;;
21991;SDS011;11160;51.576;0.194;2022-08-21T11:34:47;32.03;;;30.13;;
21991;SDS011;11160;51.576;0.194;2022-08-21T11:48:46;31.38;;;29.38;;
21991;SDS011;11160;51.576;0.194;2022-08-21T11:51:39;32.17;;;30.15;;
21991;SDS011;11160;51.576;0.194;2022-08-21T11:57:10;34.95;;;32.88;;
21991;SDS011;11160;51.576;0.194;2022-08-21T11:59:52;32.47;;;30.55;;
21991;SDS011;11160;51.576;0.194;2022-08-21T12:02:45;33.03;;;30.58;;
21991;SDS011;11160;51.576;0.194;2022-08-21T12:05:32;33.60;;;31.60;;
21991;SDS011;11160;51.576;0.194;2022-08-21T12:10:37;35.85;;;33.90;;
21991;SDS011;11160;51.576;0.194;2022-08-21T12:13:08;37.15;;;34.97;;
21991;SDS011;11160;51.576;0.194;2022-08-21T12:15:40;38.10;;;35.78;;
21991;SDS011;11160;51.576;0.194;2022-08-21T12:21:17;33.42;;;31.38;;
21991;SDS011;11160;51.576;0.194;2022-08-21T12:24:03;37.15;;;34.78;;
21991;SDS011;11160;51.576;0.194;2022-08-21T12:26:52;30.30;;;28.38;;
21991;SDS011;11160;51.576;0.194;2022-08-21T12:29:36;33.03;;;31.05;;
21991;SDS011;11160;51.576;0.194;2022-08-21T12:34:38;35.85;;;33.30;;
21991;SDS011;11160;51.576;0.194;2022-08-21T12:40:03;34.47;;;32.47;;
21991;SDS011;11160;51.576;0.194;2022-08-21T12:42:37;35.92;;;33.72;;
21991;SDS011;11160;51.576;0.194;2022-08-21T12:45:30;33.80;;;31.67;;
21991;SDS011;11160;51.576;0.194;2022-08-21T12:48:02;34.67;;;32.50;;
21991;SDS011;11160;51.576;0.194;2022-08-21T12:50:58;32.50;;;29.90;;
21991;SDS011;11160;51.576;0.194;2022-08-21T12:53:53;31.25;;;29.40;;
21991;SDS011;11160;51.576;0.194;2022-08-21T12:56:23;38.28;;;35.78;;
21991;SDS011;11160;51.576;0.194;2022-08-21T12:59:11;43.83;;;41.28;;
21991;SDS011;11160;51.576;0.194;2022-08-21T13:01:45;35.25;;;33.17;;
21991;SDS011;11160;51.576;0.194;2022-08-21T13:04:19;34.28;;;32.25;;
21991;SDS011;11160;51.576;0.194;2022-08-21T13:06:52;29.83;;;27.83;;
21991;SDS011;11160;51.576;0.194;2022-08-21T13:09:24;38.97;;;36.58;;
21991;SDS011;11160;51.576;0.194;2022-08-21T13:11:54;37.72;;;35.40;;
21991;SDS011;11160;51.576;0.194;2022-08-21T13:14:41;44.40;;;41.70;;
21991;SDS011;11160;51.576;0.194;2022-08-21T13:17:13;38.75;;;36.60;;
21991;SDS011;11160;51.576;0.194;2022-08-21T13:19:58;56.47;;;53.33;;
21991;SDS011;11160;51.576;0.194;2022-08-21T13:22:27;51.92;;;48.67;;
21991;SDS011;11160;51.576;0.194;2022-08-21T13:25:00;60.13;;;56.63;;
21991;SDS011;11160;51.576;0.194;2022-08-21T13:27:33;66.55;;;62.67;;
21991;SDS011;11160;51.576;0.194;2022-08-21T13:30:02;54.70;;;51.38;;
21991;SDS011;11160;51.576;0.194;2022-08-21T13:32:37;76.45;;;71.90;;
21991;SDS011;11160;51.576;0.194;2022-08-21T13:35:10;68.80;;;64.70;;
21991;SDS011;11160;51.576;0.194;2022-08-21T13:37:41;54.78;;;51.60;;
21991;SDS011;11160;51.576;0.194;2022-08-21T13:40:10;51.35;;;48.08;;
21991;SDS011;11160;51.576;0.194;2022-08-21T13:42:43;48.13;;;45.20;;
21991;SDS011;11160;51.576;0.194;2022-08-21T13:45:16;54.70;;;51.40;;
21991;SDS011;11160;51.576;0.194;2022-08-21T13:47:57;66.05;;;62.53;;
21991;SDS011;11160;51.576;0.194;2022-08-21T13:50:32;48.85;;;45.95;;
21991;SDS011;11160;51.576;0.194;2022-08-21T13:53:05;42.72;;;40.25;;
21991;SDS011;11160;51.576;0.194;2022-08-21T13:55:35;49.65;;;46.55;;
21991;SDS011;11160;51.576;0.194;2022-08-21T13:58:05;39.38;;;36.92;;
21991;SDS011;11160;51.576;0.194;2022-08-21T14:00:34;48.85;;;45.70;;
21991;SDS011;11160;51.576;0.194;2022-08-21T14:03:09;47.83;;;44.45;;
21991;SDS011;11160;51.576;0.194;2022-08-21T14:05:43;50.17;;;47.10;;
21991;SDS011;11160;51.576;0.194;2022-08-21T14:08:13;43.38;;;40.80;;
21991;SDS011;11160;51.576;0.194;2022-08-21T14:10:55;38.47;;;36.13;;
21991;SDS011;11160;51.576;0.194;2022-08-21T14:16:03;85.85;;;80.78;;
21991;SDS011;11160;51.576;0.194;2022-08-21T14:18:46;98.63;;;92.43;;
21991;SDS011;11160;51.576;0.194;2022-08-21T14:21:24;57.83;;;54.08;;
21991;SDS011;11160;51.576;0.194;2022-08-21T14:24:01;118.78;;;111.40;;
21991;SDS011;11160;51.576;0.194;2022-08-21T14:26:48;72.60;;;68.15;;
21991;SDS011;11160;51.576;0.194;2022-08-21T14:29:22;150.57;;;140.40;;
21991;SDS011;11160;51.576;0.194;2022-08-21T14:31:59;166.65;;;155.48;;
21991;SDS011;11160;51.576;0.194;2022-08-21T14:34:50;138.48;;;129.20;;
21991;SDS011;11160;51.576;0.194;2022-08-21T14:37:20;209.15;;;194.90;;
21991;SDS011;11160;51.576;0.194;2022-08-21T14:39:48;354.90;;;327.00;;
21991;SDS011;11160;51.576;0.194;2022-08-21T14:42:15;213.63;;;198.73;;
21991;SDS011;11160;51.576;0.194;2022-08-21T14:44:42;284.65;;;264.65;;
21991;SDS011;11160;51.576;0.194;2022-08-21T14:47:09;260.35;;;242.25;;
21991;SDS011;11160;51.576;0.194;2022-08-21T14:49:38;208.18;;;194.55;;
21991;SDS011;11160;51.576;0.194;2022-08-21T14:52:14;177.23;;;165.90;;
21991;SDS011;11160;51.576;0.194;2022-08-21T14:54:41;152.30;;;142.52;;
21991;SDS011;11160;51.576;0.194;2022-08-21T14:57:09;139.27;;;130.75;;
21991;SDS011;11160;51.576;0.194;2022-08-21T14:59:38;126.32;;;118.55;;
21991;SDS011;11160;51.576;0.194;2022-08-21T15:02:06;111.38;;;104.75;;
21991;SDS011;11160;51.576;0.194;2022-08-21T15:04:34;107.07;;;100.90;;
21991;SDS011;11160;51.576;0.194;2022-08-21T15:07:02;104.35;;;98.22;;
21991;SDS011;11160;51.576;0.194;2022-08-21T15:09:29;97.97;;;92.40;;
21991;SDS011;11160;51.576;0.194;2022-08-21T15:11:57;93.65;;;88.35;;
21991;SDS011;11160;51.576;0.194;2022-08-21T15:14:27;86.47;;;81.72;;
21991;SDS011;11160;51.576;0.194;2022-08-21T15:16:57;89.95;;;84.95;;
21991;SDS011;11160;51.576;0.194;2022-08-21T15:19:24;87.43;;;82.55;;
21991;SDS011;11160;51.576;0.194;2022-08-21T15:21:52;85.13;;;80.43;;
21991;SDS011;11160;51.576;0.194;2022-08-21T15:24:19;82.70;;;78.13;;
21991;SDS011;11160;51.576;0.194;2022-08-21T15:26:46;69.75;;;65.65;;
21991;SDS011;11160;51.576;0.194;2022-08-21T15:29:14;71.80;;;67.63;;
21991;SDS011;11160;51.576;0.194;2022-08-21T15:31:52;61.17;;;57.78;;
21991;SDS011;11160;51.576;0.194;2022-08-21T15:34:24;48.97;;;46.17;;
21991;SDS011;11160;51.576;0.194;2022-08-21T15:36:56;52.75;;;49.65;;
21991;SDS011;11160;51.576;0.194;2022-08-21T15:39:25;44.70;;;42.15;;
21991;SDS011;11160;51.576;0.194;2022-08-21T15:41:56;42.90;;;40.35;;
21991;SDS011;11160;51.576;0.194;2022-08-21T15:44:24;44.70;;;41.88;;
21991;SDS011;11160;51.576;0.194;2022-08-21T15:46:53;40.95;;;38.50;;
21991;SDS011;11160;51.576;0.194;2022-08-21T15:49:21;39.80;;;37.42;;
21991;SDS011;11160;51.576;0.194;2022-08-21T15:51:49;41.95;;;39.40;;
21991;SDS011;11160;51.576;0.194;2022-08-21T15:54:16;42.85;;;40.28;;
21991;SDS011;11160;51.576;0.194;2022-08-21T15:56:44;39.60;;;37.33;;
21991;SDS011;11160;51.576;0.194;2022-08-21T15:59:15;36.50;;;34.30;;
21991;SDS011;11160;51.576;0.194;2022-08-21T16:01:45;34.42;;;32.30;;
21991;SDS011;11160;51.576;0.194;2022-08-21T16:04:15;33.92;;;31.83;;
21991;SDS011;11160;51.576;0.194;2022-08-21T16:06:48;32.65;;;30.70;;
21991;SDS011;11160;51.576;0.194;2022-08-21T16:09:21;30.48;;;28.65;;
21991;SDS011;11160;51.576;0.194;2022-08-21T16:11:48;28.45;;;26.63;;
21991;SDS011;11160;51.576;0.194;2022-08-21T16:14:16;29.38;;;27.63;;
21991;SDS011;11160;51.576;0.194;2022-08-21T16:16:44;24.40;;;22.95;;
21991;SDS011;11160;51.576;0.194;2022-08-21T16:19:11;25.00;;;23.42;;
21991;SDS011;11160;51.576;0.194;2022-08-21T16:21:40;23.25;;;21.80;;
21991;SDS011;11160;51.576;0.194;2022-08-21T16:24:07;22.08;;;20.70;;
21991;SDS011;11160;51.576;0.194;2022-08-21T16:26:34;18.35;;;17.23;;
21991;SDS011;11160;51.576;0.194;2022-08-21T16:29:01;17.67;;;16.52;;
21991;SDS011;11160;51.576;0.194;2022-08-21T16:31:29;16.75;;;15.57;;
21991;SDS011;11160;51.576;0.194;2022-08-21T16:33:58;16.90;;;15.73;;
21991;SDS011;11160;51.576;0.194;2022-08-21T16:36:25;17.50;;;16.30;;
21991;SDS011;11160;51.576;0.194;2022-08-21T16:38:53;17.02;;;15.95;;
21991;SDS011;11160;51.576;0.194;2022-08-21T16:41:22;17.98;;;16.77;;
21991;SDS011;11160;51.576;0.194;2022-08-21T16:43:52;15.30;;;14.30;;
21991;SDS011;11160;51.576;0.194;2022-08-21T16:46:20;17.23;;;16.08;;
21991;SDS011;11160;51.576;0.194;2022-08-21T16:48:49;17.27;;;16.13;;
21991;SDS011;11160;51.576;0.194;2022-08-21T16:51:16;19.67;;;18.35;;
21991;SDS011;11160;51.576;0.194;2022-08-21T16:53:43;14.48;;;13.48;;
21991;SDS011;11160;51.576;0.194;2022-08-21T16:56:11;16.65;;;15.52;;
21991;SDS011;11160;51.576;0.194;2022-08-21T16:58:42;14.52;;;13.52;;
21991;SDS011;11160;51.576;0.194;2022-08-21T17:01:13;12.68;;;11.82;;
21991;SDS011;11160;51.576;0.194;2022-08-21T17:03:46;12.98;;;12.07;;